Bern, Idaho
Current Conditions -  °F | °C
As of 3:15 PM on Monday 20 Oct 2014 (Local Time) from KAFO Reporting Station
Scattered Clouds Scattered Clouds  
Wind Chill: 68°   Ceiling: Unl
Heat Index: 68°   Visibility: 10mi
Dew Point: 32°   Wind: 9mph
Humidity: 26%   Direction: 190°S
Pressure: 30.05"   Gusts: 16mph
Location:  42.34°N, 111.39°W
Report Text: KAFO 202115Z AUTO 19008G14KT 10SM SCT095 20/00 A3005 RMK AO2
Loading
Personal Weather Stations






























Interactive Weather Map
Tropical Storm Tracking
New forecast layout! Learn more

10-Day Weather Forecast

Advertisements
Track Severe Weather on mobile